Sand Ridge, Illinois
Current Conditions -  °F | °C
As of 1:52 PM on Sunday 23 Nov 2014 (Local Time) from KMDH Reporting Station
Light Rain Light Rain  
Wind Chill: 53°   Ceiling: 800
Heat Index: 53°   Visibility: 5mi
Dew Point: 51°   Wind: 9mph
Humidity: 93%   Direction: 110°ESE
Pressure: 29.44"   Gusts: NA
Location:  37.7438°N, 89.4409°W
Report Text: KMDH 231952Z AUTO 11008KT 5SM -RA BR BKN008 OVC090 12/11 A2944 RMK AO2 CIG 005V015 SLP968 P0005 T01170106
Loading
Personal Weather Stations






























Interactive Weather Map New forecast layout! Learn more

10-Day Weather Forecast

Advertisements
Track Severe Weather on mobile